Time;durP1;ratioP1;P1;durP2;ratioP2;P2;SDS_P1;SDS_P2;PMS_P1;PMS_P2;Temp;Humidity;BMP_temperature;BMP_pressure;BME280_temperature;BME280_humidity;BME280_pressure;Samples;Min_cycle;Max_cycle;Signal;HPM_P1;HPM_P2
2022/09/26 00:02:06;;;;;;;55.10;52.28;;;;;;;18.06;72.46;100981.25;5016743;28;103895;-53
2022/09/26 00:04:33;;;;;;;52.38;49.75;;;;;;;18.06;72.23;100986.75;5017269;28;102278;-54
2022/09/26 00:07:01;;;;;;;49.67;47.10;;;;;;;18.04;72.04;100987.09;5016896;28;101958;-53
2022/09/26 00:09:27;;;;;;;47.30;44.80;;;;;;;18.06;72.18;100984.00;5017795;28;102742;-53
2022/09/26 00:11:55;;;;;;;49.58;47.05;;;;;;;18.06;72.13;100984.00;5014398;28;103725;-54
2022/09/26 00:14:27;;;;;;;53.42;50.33;;;;;;;18.05;72.08;100985.16;5017173;28;101984;-53
2022/09/26 00:16:55;;;;;;;52.58;49.88;;;;;;;18.04;72.10;100986.28;5008011;28;102645;-54
2022/09/26 00:19:23;;;;;;;53.08;50.28;;;;;;;18.05;72.68;100985.16;5011481;28;102748;-54
2022/09/26 00:21:50;;;;;;;52.08;49.38;;;;;;;18.05;72.39;100987.91;4997284;28;104064;-54
2022/09/26 00:24:16;;;;;;;49.95;47.35;;;;;;;18.06;72.83;100984.00;4998499;28;102574;-53
2022/09/26 00:26:43;;;;;;;48.35;45.78;;;;;;;18.05;72.38;100974.13;5011809;28;102356;-53
2022/09/26 00:29:13;;;;;;;50.67;48.08;;;;;;;18.06;72.19;100984.81;5016526;28;102102;-55
2022/09/26 00:31:43;;;;;;;44.60;42.15;;;;;;;18.05;72.32;100976.88;5009646;28;104204;-54
2022/09/26 00:34:11;;;;;;;49.60;46.83;;;;;;;18.05;72.21;100980.44;5017136;28;102320;-54
2022/09/26 00:36:38;;;;;;;51.95;49.30;;;;;;;18.05;72.39;100979.63;5002946;28;102659;-54
2022/09/26 00:39:05;;;;;;;48.30;45.83;;;;;;;18.05;72.15;100971.38;4997864;28;102185;-54
2022/09/26 00:41:32;;;;;;;47.07;44.57;;;;;;;18.05;72.23;100976.88;5007265;28;103928;-55
2022/09/26 00:43:59;;;;;;;46.20;43.83;;;;;;;18.06;72.55;100964.72;5008540;28;104633;-54
2022/09/26 00:46:33;;;;;;;48.20;45.67;;;;;;;18.06;72.39;100967.50;5012587;28;102350;-54
2022/09/26 00:49:12;;;;;;;48.17;45.67;;;;;;;18.05;72.57;100971.38;5016846;28;102301;-54
2022/09/26 00:51:42;;;;;;;46.33;43.92;;;;;;;18.06;72.50;100964.72;5014951;28;103935;-54
2022/09/26 00:54:12;;;;;;;48.22;45.72;;;;;;;18.05;72.25;100963.13;5001872;28;102039;-54
2022/09/26 00:56:42;;;;;;;51.67;49.03;;;;;;;18.05;72.22;100960.34;4996657;28;102421;-54
2022/09/26 00:59:21;;;;;;;45.22;42.88;;;;;;;18.05;72.25;100949.34;4996717;28;102462;-54
2022/09/26 01:01:49;;;;;;;48.08;45.58;;;;;;;18.05;72.34;100961.16;4998946;28;103900;-54
2022/09/26 01:04:16;;;;;;;47.03;44.60;;;;;;;18.06;72.22;100945.47;5002796;28;102129;-54
2022/09/26 01:06:44;;;;;;;53.35;50.63;;;;;;;18.06;72.50;100950.97;5011618;28;102139;-54
2022/09/26 01:09:13;;;;;;;49.13;46.60;;;;;;;18.04;72.55;100942.22;5016460;28;102688;-54
2022/09/26 01:11:42;;;;;;;49.28;46.72;;;;;;;18.05;72.17;100938.31;5013036;28;103904;-55
2022/09/26 01:14:11;;;;;;;48.50;45.67;;;;;;;18.05;72.75;100943.84;5015527;28;102109;-54
2022/09/26 01:16:40;;;;;;;48.08;45.55;;;;;;;18.05;72.75;100938.31;5014654;28;101983;-54
2022/09/26 01:19:17;;;;;;;52.33;49.65;;;;;;;18.05;72.17;100943.84;5013648;28;102242;-54
2022/09/26 01:22:05;;;;;;;46.97;44.55;;;;;;;18.05;72.47;100935.56;5000535;28;103913;-54
2022/09/26 01:24:49;;;;;;;46.33;43.92;;;;;;;18.05;72.45;100927.31;5015411;28;102261;-54
2022/09/26 01:27:42;;;;;;;45.75;43.38;;;;;;;18.06;72.44;100926.19;5015071;28;102125;-54
2022/09/26 01:30:13;;;;;;;51.88;49.17;;;;;;;18.05;72.77;100930.06;5014280;28;102138;-54
2022/09/26 01:33:03;;;;;;;47.20;44.67;;;;;;;18.06;72.77;100934.44;5009374;28;103941;-54
2022/09/26 01:36:08;;;;;;;46.40;44.00;;;;;;;18.05;72.35;100927.31;5003818;28;102287;-54
2022/09/26 01:38:45;;;;;;;49.17;46.45;;;;;;;18.04;72.71;100921.00;4996109;28;102179;-54
2022/09/26 01:41:31;;;;;;;48.67;46.15;;;;;;;18.04;72.75;100920.19;5005983;28;102531;-53
2022/09/26 01:44:07;;;;;;;49.97;47.28;;;;;;;18.06;72.45;100923.41;5014722;28;104103;-54
2022/09/26 01:46:43;;;;;;;47.60;45.17;;;;;;;18.05;72.48;100916.31;5009121;28;102336;-54
2022/09/26 01:49:16;;;;;;;47.67;45.22;;;;;;;18.04;72.56;100921.00;5003375;28;103594;-53
2022/09/26 01:51:52;;;;;;;52.28;49.53;;;;;;;18.06;72.58;100915.16;5014234;28;102355;-54
2022/09/26 01:54:22;;;;;;;49.55;46.97;;;;;;;18.05;72.60;100917.09;5011243;28;103870;-54
2022/09/26 01:56:52;;;;;;;54.83;52.00;;;;;;;18.04;72.26;100914.69;4999399;28;103521;-54
2022/09/26 01:59:25;;;;;;;48.63;46.08;;;;;;;18.05;72.75;100905.28;5008151;28;104594;-54
2022/09/26 02:01:59;;;;;;;46.53;44.13;;;;;;;18.06;72.78;100909.66;5014057;28;102301;-54
2022/09/26 02:04:33;;;;;;;50.75;47.97;;;;;;;18.03;72.41;100897.31;5014048;28;103868;-56
2022/09/26 02:07:05;;;;;;;45.97;43.63;;;;;;;18.06;72.32;100898.63;4996179;28;102021;-54
2022/09/26 02:09:37;;;;;;;47.42;44.95;;;;;;;18.04;72.65;100898.97;4995159;28;102256;-54
2022/09/26 02:12:07;;;;;;;49.83;47.22;;;;;;;18.04;72.62;100898.16;5004124;28;102041;-54
2022/09/26 02:14:36;;;;;;;44.53;42.17;;;;;;;18.04;72.60;100892.66;4994258;28;103936;-54
2022/09/26 02:17:08;;;;;;;47.72;45.25;;;;;;;18.06;72.39;100901.38;5009167;28;102420;-54
2022/09/26 02:19:49;;;;;;;48.25;45.78;;;;;;;18.05;72.69;100897.03;5004980;28;102566;-54
2022/09/26 02:22:16;;;;;;;48.40;45.83;;;;;;;18.06;72.55;100887.63;5015432;28;102360;-53
2022/09/26 02:24:42;;;;;;;52.22;49.55;;;;;;;18.05;72.50;100888.75;5014339;28;103935;-54
2022/09/26 02:27:10;;;;;;;46.17;43.72;;;;;;;18.06;72.62;100884.88;5014144;28;102432;-53
2022/09/26 02:29:39;;;;;;;48.72;46.08;;;;;;;18.06;72.70;100879.34;5012386;28;102374;-54
2022/09/26 02:32:14;;;;;;;46.45;44.05;;;;;;;18.06;72.95;100873.84;5014705;28;102363;-53
2022/09/26 02:34:45;;;;;;;47.30;44.83;;;;;;;18.05;73.00;100878.56;5008435;28;104332;-54
2022/09/26 02:37:13;;;;;;;46.50;44.10;;;;;;;18.05;72.64;100873.03;5005120;28;102276;-54
2022/09/26 02:39:40;;;;;;;;;;;;;;;18.05;72.57;100875.00;4995169;28;102451;-54
2022/09/26 02:42:17;;;;;;;37.25;35.20;;;;;;;18.06;72.77;100879.34;5005799;28;102382;-54
2022/09/26 02:45:16;;;;;;;41.55;39.45;;;;;;;18.04;72.61;100882.44;5013938;28;103974;-54
2022/09/26 02:48:21;;;;;;;46.13;43.70;;;;;;;18.06;72.98;100882.91;4997061;28;102058;-54
2022/09/26 02:51:07;;;;;;;47.53;44.97;;;;;;;18.06;72.33;100876.59;4989607;28;102312;-54
2022/09/26 02:53:55;;;;;;;41.13;38.97;;;;;;;18.06;72.66;100884.88;5009818;28;104729;-54
2022/09/26 02:56:31;;;;;;;39.45;37.35;;;;;;;18.06;73.03;100879.34;4999787;28;109068;-53
2022/09/26 02:59:05;;;;;;;44.00;41.70;;;;;;;18.06;72.55;100876.59;5013961;28;102162;-54
2022/09/26 03:01:40;;;;;;;37.25;35.25;;;;;;;18.05;72.77;100880.50;5013240;28;102261;-54
2022/09/26 03:04:14;;;;;;;41.33;39.13;;;;;;;18.06;72.99;100885.66;5016022;28;102439;-54
2022/09/26 03:06:45;;;;;;;41.63;39.30;;;;;;;18.05;72.68;100877.75;5013576;28;103972;-54
2022/09/26 03:09:16;;;;;;;42.03;39.75;;;;;;;18.05;72.70;100873.03;5009006;28;102617;-54
2022/09/26 03:11:44;;;;;;;43.17;40.92;;;;;;;18.06;73.10;100876.59;5000249;28;102342;-54
2022/09/26 03:14:12;;;;;;;44.20;41.88;;;;;;;18.06;72.53;100879.34;5018818;28;102131;-54
2022/09/26 03:16:41;;;;;;;47.35;44.95;;;;;;;18.06;72.58;100866.41;5016376;28;103834;-54
2022/09/26 03:19:13;;;;;;;41.38;39.28;;;;;;;18.06;72.99;100873.84;5017634;28;102303;-54
2022/09/26 03:21:39;;;;;;;44.75;42.42;;;;;;;18.06;73.31;100871.09;5016504;28;102326;-54
2022/09/26 03:24:08;;;;;;;43.05;40.78;;;;;;;18.06;72.81;100866.41;5002730;28;102183;-54
2022/09/26 03:26:35;;;;;;;;;;;;;;;18.06;72.89;100871.09;5017643;28;103989;-54
2022/09/26 03:29:02;;;;;;;42.08;39.88;;;;;;;18.06;72.94;100862.84;5017256;28;102193;-55
2022/09/26 03:31:30;;;;;;;44.97;42.63;;;;;;;18.06;73.01;100860.06;5015995;28;102273;-54
2022/09/26 03:33:57;;;;;;;43.10;40.90;;;;;;;18.05;72.82;100862.03;5005745;28;102305;-54
2022/09/26 03:36:23;;;;;;;43.50;41.05;;;;;;;18.06;72.81;100858.13;5006237;28;103909;-54
2022/09/26 03:38:51;;;;;;;48.13;45.70;;;;;;;18.07;73.09;100854.28;5017484;28;102499;-54
2022/09/26 03:41:18;;;;;;;46.53;44.13;;;;;;;18.06;73.09;100854.56;5016043;28;102064;-54
2022/09/26 03:43:45;;;;;;;45.97;43.60;;;;;;;18.07;73.06;100858.94;5018314;28;102207;-54
2022/09/26 03:46:12;;;;;;;45.08;42.75;;;;;;;18.05;72.82;100847.44;5016092;28;104027;-54
2022/09/26 03:48:39;;;;;;;44.88;42.55;;;;;;;18.06;73.10;100849.06;5017455;28;102443;-54
2022/09/26 03:51:08;;;;;;;43.92;41.67;;;;;;;18.06;73.27;100840.81;5016218;28;102471;-54
2022/09/26 03:53:36;;;;;;;44.30;42.03;;;;;;;18.05;73.03;100842.75;5010480;28;102593;-54
2022/09/26 03:56:06;;;;;;;42.83;40.60;;;;;;;18.06;73.27;100840.81;5010718;28;103900;-55
2022/09/26 03:58:34;;;;;;;42.08;39.92;;;;;;;18.06;73.17;100824.28;5017155;28;101976;-53
2022/09/26 04:01:05;;;;;;;49.47;46.97;;;;;;;18.07;73.19;100836.91;5014822;28;102302;-54
2022/09/26 04:03:33;;;;;;;43.80;41.53;;;;;;;18.05;72.94;100839.19;5017846;28;102520;-54
2022/09/26 04:06:00;;;;;;;44.43;42.10;;;;;;;18.05;73.21;100833.69;5010404;28;103965;-54
2022/09/26 04:08:28;;;;;;;41.75;39.53;;;;;;;18.06;73.17;100832.53;5003975;28;102465;-54
2022/09/26 04:11:00;;;;;;;46.33;43.92;;;;;;;18.06;73.31;100822.34;5015409;28;102451;-54
2022/09/26 04:13:26;;;;;;;42.90;40.65;;;;;;;18.07;73.27;100820.38;5017512;28;102243;-53
2022/09/26 04:15:58;;;;;;;47.08;44.67;;;;;;;18.06;73.40;100822.34;4997910;28;104034;-53
2022/09/26 04:18:24;;;;;;;46.00;43.50;;;;;;;18.06;72.92;100829.78;5014973;28;102142;-53
2022/09/26 04:20:56;;;;;;;45.00;42.67;;;;;;;18.06;73.17;100824.28;5001689;28;102427;-53
2022/09/26 04:23:22;;;;;;;42.50;40.33;;;;;;;18.06;73.40;100821.53;5017415;28;102595;-54
2022/09/26 04:25:49;;;;;;;42.90;40.67;;;;;;;18.06;73.06;100814.06;5015924;28;103980;-53
2022/09/26 04:28:15;;;;;;;45.63;43.25;;;;;;;18.07;73.21;100815.72;5011930;28;102316;-53
2022/09/26 04:30:42;;;;;;;46.85;44.45;;;;;;;18.07;73.37;100821.22;5016309;28;102353;-54
2022/09/26 04:33:11;;;;;;;46.88;44.40;;;;;;;18.06;73.52;100816.03;5016718;28;102202;-54
2022/09/26 04:35:37;;;;;;;47.95;45.45;;;;;;;18.08;73.54;100822.03;5015842;28;103945;-54
2022/09/26 04:38:04;;;;;;;46.30;43.92;;;;;;;18.07;73.07;100823.13;5015034;28;102410;-54
2022/09/26 04:40:31;;;;;;;47.38;44.92;;;;;;;18.06;72.98;100818.78;5015985;28;102253;-54
2022/09/26 04:42:58;;;;;;;48.33;45.80;;;;;;;18.07;73.59;100820.38;5015852;28;102197;-54
2022/09/26 04:45:24;;;;;;;44.70;42.40;;;;;;;18.06;73.43;100824.28;5015981;28;103883;-54
2022/09/26 04:47:51;;;;;;;45.60;43.25;;;;;;;18.06;73.62;100816.03;5015918;28;102764;-54
2022/09/26 04:50:20;;;;;;;46.65;44.15;;;;;;;18.06;73.27;100819.56;4998907;28;102331;-54
2022/09/26 04:52:46;;;;;;;46.00;43.55;;;;;;;18.05;73.48;100822.66;5007555;28;102321;-54
2022/09/26 04:55:13;;;;;;;45.78;43.40;;;;;;;18.06;73.15;100825.09;5004959;28;103743;-54
2022/09/26 04:57:40;;;;;;;46.45;44.03;;;;;;;18.07;73.21;100823.13;5013420;28;102101;-54
2022/09/26 05:00:11;;;;;;;43.00;40.78;;;;;;;18.07;73.40;100826.72;5015940;28;102147;-54
2022/09/26 05:02:38;;;;;;;45.70;43.35;;;;;;;18.07;73.21;100831.41;5016519;28;102098;-54
2022/09/26 05:05:05;;;;;;;46.55;44.05;;;;;;;18.07;73.41;100831.41;5003770;28;103883;-54
2022/09/26 05:07:38;;;;;;;49.08;46.38;;;;;;;18.07;73.53;100820.38;5014654;28;102434;-54
2022/09/26 05:10:09;;;;;;;45.45;42.97;;;;;;;18.07;73.50;100825.91;4996658;28;102141;-54
2022/09/26 05:12:38;;;;;;;47.38;44.90;;;;;;;18.08;73.25;100830.28;5003106;28;102482;-54
2022/09/26 05:15:07;;;;;;;45.33;42.85;;;;;;;18.06;73.35;100825.09;5011152;28;103958;-54
2022/09/26 05:17:35;;;;;;;44.55;42.10;;;;;;;18.07;73.15;100825.91;5014246;28;102437;-54
2022/09/26 05:20:07;;;;;;;49.22;46.60;;;;;;;18.07;73.39;100832.25;5008574;28;102040;-54
2022/09/26 05:22:35;;;;;;;48.42;45.83;;;;;;;18.08;73.56;100833.03;5008142;28;102652;-54
2022/09/26 05:27:47;;;;;;;49.60;46.97;;;;;;;18.07;73.50;100836.91;5009329;28;102486;-54
2022/09/26 05:30:14;;;;;;;48.08;45.50;;;;;;;18.07;73.08;100831.41;5011961;28;102407;-54
2022/09/26 05:32:44;;;;;;;46.05;43.67;;;;;;;18.07;73.51;100832.25;5011307;28;102237;-54
2022/09/26 05:35:11;;;;;;;49.50;46.83;;;;;;;18.08;73.25;100825.59;5015005;28;104037;-54
2022/09/26 05:37:39;;;;;;;49.00;46.35;;;;;;;18.07;73.62;100818.47;5008524;28;102052;-54
2022/09/26 05:42:58;;;;;;;44.00;41.53;;;;;;;18.07;73.24;100821.22;5002722;28;104403;-53
2022/09/26 05:45:25;;;;;;;42.65;40.20;;;;;;;18.08;73.75;100814.56;5015129;28;104102;-54
2022/09/26 05:47:51;;;;;;;45.13;42.17;;;;;;;18.10;73.78;100814.25;5014907;28;102286;-54
2022/09/26 05:50:21;;;;;;;45.72;43.03;;;;;;;18.09;73.66;100818.94;5014061;28;102212;-53
2022/09/26 05:52:49;;;;;;;45.45;42.90;;;;;;;18.09;73.26;100818.94;5005370;28;102155;-54
2022/09/26 05:55:16;;;;;;;48.97;46.15;;;;;;;18.10;73.31;100812.28;5009923;28;104010;-54
2022/09/26 05:57:49;;;;;;;46.95;44.00;;;;;;;18.10;73.63;100814.25;5014455;28;102344;-55
2022/09/26 06:00:16;;;;;;;43.30;40.80;;;;;;;18.11;73.56;100805.69;5013468;28;102065;-54
2022/09/26 06:02:43;;;;;;;46.88;43.85;;;;;;;18.11;73.73;100804.88;5009474;28;102195;-59
2022/09/26 06:05:10;;;;;;;44.08;41.30;;;;;;;18.10;73.59;100798.53;4998829;28;103976;-54
2022/09/26 06:07:38;;;;;;;48.43;45.73;;;;;;;18.10;73.48;100804.03;5012847;28;102453;-54
2022/09/26 06:10:06;;;;;;;49.38;46.40;;;;;;;18.10;73.50;100797.72;4999890;28;103062;-54
2022/09/26 06:12:36;;;;;;;44.97;42.22;;;;;;;18.11;73.98;100793.84;5006361;28;102670;-54
2022/09/26 06:15:04;;;;;;;46.90;44.08;;;;;;;18.11;74.04;100800.16;5004660;28;104925;-54
2022/09/26 06:17:31;;;;;;;44.97;42.00;;;;;;;18.12;73.85;100795.47;5012931;28;102578;-55
2022/09/26 06:19:58;;;;;;;43.90;41.08;;;;;;;18.11;73.63;100789.16;5011066;28;102024;-54
2022/09/26 06:22:25;;;;;;;45.60;42.97;;;;;;;18.13;73.68;100792.38;5015246;28;102237;-54
2022/09/26 06:24:51;;;;;;;51.13;48.13;;;;;;;18.12;74.08;100800.97;5006858;28;103887;-54
2022/09/26 06:27:21;;;;;;;46.45;43.70;;;;;;;18.15;74.22;100803.09;5013335;28;102283;-54
2022/09/26 06:29:47;;;;;;;49.83;47.00;;;;;;;18.16;73.94;100802.75;5009389;28;102410;-54
2022/09/26 06:32:14;;;;;;;49.53;46.70;;;;;;;18.13;74.08;100803.41;5009907;28;103309;-54
2022/09/26 06:34:41;;;;;;;47.35;44.65;;;;;;;18.15;74.08;100805.84;5006516;28;105450;-54
2022/09/26 06:37:07;;;;;;;47.58;44.95;;;;;;;18.15;73.96;100800.34;5014374;28;102240;-54
2022/09/26 06:39:37;;;;;;;44.28;41.70;;;;;;;18.15;74.00;100794.84;5014024;28;102206;-54
2022/09/26 06:42:06;;;;;;;47.78;45.10;;;;;;;18.15;74.09;100798.41;5003792;28;104699;-54
2022/09/26 06:44:34;;;;;;;48.63;45.80;;;;;;;18.17;74.11;100798.88;5013870;28;104245;-54
2022/09/26 06:47:04;;;;;;;46.03;43.53;;;;;;;18.19;74.24;100796.63;5014024;28;104905;-54
2022/09/26 06:49:32;;;;;;;44.50;41.97;;;;;;;18.20;73.89;100800.19;5010754;28;102288;-53
2022/09/26 06:51:59;;;;;;;;;;;;;;;18.22;73.68;100797.94;5021777;27;102284;-53
2022/09/26 06:54:26;;;;;;;43.63;41.13;;;;;;;18.23;74.16;100794.03;5007428;28;103819;-54
2022/09/26 06:56:52;;;;;;;42.15;39.75;;;;;;;18.23;73.71;100792.09;5017405;28;102687;-54
2022/09/26 06:59:19;;;;;;;46.10;43.40;;;;;;;18.23;74.10;100781.06;5016512;28;102580;-53
2022/09/26 07:01:46;;;;;;;47.70;45.17;;;;;;;18.23;73.85;100785.78;5015998;28;102443;-54
2022/09/26 07:04:14;;;;;;;53.83;50.67;;;;;;;18.27;74.25;100780.44;5015872;28;104293;-54
2022/09/26 07:06:42;;;;;;;44.40;41.70;;;;;;;18.30;74.01;100777.84;5016152;28;102568;-54
2022/09/26 07:09:08;;;;;;;45.45;42.80;;;;;;;18.29;73.79;100781.75;5017452;28;102562;-53
2022/09/26 07:11:36;;;;;;;50.33;47.55;;;;;;;18.31;73.52;100790.47;5017421;28;102146;-53
2022/09/26 07:14:03;;;;;;;45.90;43.28;;;;;;;18.31;73.77;100776.69;5012341;28;103969;-53
2022/09/26 07:16:30;;;;;;;45.58;43.03;;;;;;;18.28;74.00;100769.06;4998075;28;102426;-53
2022/09/26 07:18:58;;;;;;;46.47;43.72;;;;;;;18.29;73.64;100773.47;4999178;28;101902;-53
2022/09/26 07:21:24;;;;;;;44.80;42.30;;;;;;;18.27;73.78;100781.22;5018098;28;102089;-53
2022/09/26 07:23:55;;;;;;;45.67;43.17;;;;;;;18.28;74.15;100788.34;5014494;28;104133;-54
2022/09/26 07:26:22;;;;;;;41.25;38.88;;;;;;;18.27;73.74;100780.44;5012569;28;102564;-54
2022/09/26 07:28:49;;;;;;;39.80;37.50;;;;;;;18.28;73.79;100765.50;5012077;28;102417;-53
2022/09/26 07:31:18;;;;;;;46.53;43.92;;;;;;;18.28;73.84;100771.03;5015106;28;102701;-54
2022/09/26 07:33:44;;;;;;;44.38;41.70;;;;;;;18.29;73.70;100776.22;5016303;28;104075;-53
2022/09/26 07:36:12;;;;;;;43.10;40.70;;;;;;;18.29;73.93;100772.66;5011026;28;102492;-54
2022/09/26 07:38:39;;;;;;;44.05;41.45;;;;;;;18.30;73.99;100769.59;5015885;28;102470;-54
2022/09/26 07:41:09;;;;;;;46.03;43.53;;;;;;;18.29;74.00;100778.19;5017854;28;102246;-54
2022/09/26 07:43:36;;;;;;;45.13;42.60;;;;;;;18.28;73.76;100793.88;5016483;28;103762;-53
2022/09/26 07:51:37;;;;;;;42.63;40.28;;;;;;;18.27;73.75;100772.16;5008340;28;103562;-54
2022/09/26 07:54:04;;;;;;;43.38;40.95;;;;;;;18.28;73.86;100769.06;5004861;28;103906;-54
2022/09/26 07:56:33;;;;;;;44.80;42.27;;;;;;;18.28;74.10;100760.81;5008553;28;102392;-54
2022/09/26 07:59:05;;;;;;;41.20;38.80;;;;;;;18.30;73.99;100761.31;5012679;28;102395;-55
2022/09/26 08:01:32;;;;;;;57.42;54.33;;;;;;;18.33;73.68;100768.94;5015321;28;102454;-55
2022/09/26 08:03:59;;;;;;;61.83;58.63;;;;;;;18.33;73.68;100765.38;5009263;28;104518;-55
2022/09/26 08:06:26;;;;;;;62.17;58.75;;;;;;;18.34;73.99;100767.78;5007898;28;102340;-55
2022/09/26 08:08:57;;;;;;;64.73;61.17;;;;;;;18.35;73.97;100760.34;5012940;28;102327;-55
2022/09/26 08:11:24;;;;;;;55.72;52.42;;;;;;;18.35;73.71;100747.38;5008226;28;102068;-55
2022/09/26 08:13:51;;;;;;;54.70;51.60;;;;;;;18.35;73.81;100750.13;5002942;28;103970;-54
2022/09/26 08:16:24;;;;;;;55.35;52.47;;;;;;;18.36;73.86;100754.53;5014147;28;102236;-55
2022/09/26 08:18:52;;;;;;;55.20;51.97;;;;;;;18.38;73.92;100766.00;5013216;28;102451;-55
2022/09/26 08:21:19;;;;;;;55.00;51.83;;;;;;;18.40;73.57;100743.66;5008618;28;102802;-55
2022/09/26 08:23:45;;;;;;;56.05;52.95;;;;;;;18.41;73.57;100743.34;5005840;28;104121;-54
2022/09/26 08:26:13;;;;;;;58.63;55.28;;;;;;;18.40;73.63;100747.22;5012845;28;102203;-55
2022/09/26 08:28:40;;;;;;;56.78;53.70;;;;;;;18.41;73.69;100740.56;5016499;28;102014;-54
2022/09/26 08:31:07;;;;;;;49.80;46.90;;;;;;;18.40;73.58;100736.22;5005078;28;102331;-54
2022/09/26 08:33:36;;;;;;;57.10;53.95;;;;;;;18.41;73.61;100743.34;5014143;28;104015;-54
2022/09/26 08:36:05;;;;;;;57.20;54.08;;;;;;;18.42;73.53;100739.44;5008035;28;102325;-54
2022/09/26 08:38:34;;;;;;;52.33;49.60;;;;;;;18.42;73.35;100744.94;5007799;28;102071;-54
2022/09/26 08:41:13;;;;;;;55.30;52.33;;;;;;;18.41;73.58;100742.53;5016279;28;102202;-54
2022/09/26 08:43:56;;;;;;;56.58;53.45;;;;;;;18.43;73.24;100723.75;5014509;28;103951;-55
2022/09/26 08:49:16;;;;;;;56.08;52.92;;;;;;;18.45;73.59;100725.00;5008348;28;102661;-54
2022/09/26 08:51:45;;;;;;;53.00;50.03;;;;;;;18.48;73.25;100718.84;5013695;28;102158;-55
2022/09/26 08:54:16;;;;;;;53.55;50.58;;;;;;;18.50;73.31;100718.56;5006853;28;103823;-55
2022/09/26 08:56:46;;;;;;;52.75;49.72;;;;;;;18.53;73.52;100717.06;5010790;28;102206;-54
2022/09/26 08:59:24;;;;;;;54.50;51.42;;;;;;;18.53;73.33;100712.34;4996023;28;102179;-55
2022/09/26 09:01:55;;;;;;;51.90;48.73;;;;;;;18.54;73.23;100705.75;5007662;28;102233;-55
2022/09/26 09:04:26;;;;;;;60.08;56.72;;;;;;;18.56;73.23;100702.63;5015343;28;104025;-55
2022/09/26 09:07:03;;;;;;;51.67;48.55;;;;;;;18.55;73.29;100698.28;4998320;28;102716;-55
2022/09/26 09:09:33;;;;;;;54.55;51.47;;;;;;;18.56;73.57;100695.19;4991410;28;102647;-55
2022/09/26 09:12:12;;;;;;;58.72;55.45;;;;;;;18.57;73.34;100687.72;4993604;28;102296;-55
2022/09/26 09:14:55;;;;;;;57.90;54.63;;;;;;;18.58;73.38;100692.13;4999400;28;104028;-55
2022/09/26 09:17:32;;;;;;;64.30;60.17;;;;;;;18.59;73.63;100707.50;4992508;28;102362;-55
2022/09/26 09:20:09;;;;;;;57.17;53.88;;;;;;;18.58;73.45;100692.13;4994198;28;102396;-55
2022/09/26 09:23:23;;;;;;;59.45;55.83;;;;;;;18.57;73.45;100690.47;4995534;28;102383;-55
2022/09/26 09:26:04;;;;;;;55.22;51.97;;;;;;;18.57;73.25;100701.50;4989942;28;108300;-55
2022/09/26 09:28:46;;;;;;;57.90;54.42;;;;;;;18.59;73.30;100696.47;4993497;28;102313;-55
2022/09/26 09:31:15;;;;;;;59.17;55.70;;;;;;;18.59;73.29;100702.00;4993673;28;102406;-55
2022/09/26 09:33:46;;;;;;;57.00;53.70;;;;;;;18.59;73.51;100696.47;4994199;28;101991;-55
2022/09/26 09:36:16;;;;;;;53.92;50.90;;;;;;;18.60;73.51;100700.84;4993870;28;103855;-55
2022/09/26 09:38:46;;;;;;;61.78;58.13;;;;;;;18.58;73.26;100703.94;4993268;28;102464;-55
2022/09/26 09:41:16;;;;;;;55.97;52.60;;;;;;;18.59;73.22;100708.31;4993775;28;102047;-55
2022/09/26 09:43:47;;;;;;;64.18;60.15;;;;;;;18.59;73.07;100715.78;4994945;28;102023;-55
2022/09/26 09:46:22;;;;;;;57.95;54.53;;;;;;;18.57;73.24;100707.84;4993414;28;104037;-55
2022/09/26 09:48:52;;;;;;;59.33;55.50;;;;;;;18.57;73.41;100713.34;4994242;28;102245;-55
2022/09/26 09:51:32;;;;;;;58.72;55.28;;;;;;;18.58;73.59;100714.97;4993623;28;102420;-55
2022/09/26 09:54:16;;;;;;;54.25;50.95;;;;;;;18.60;73.08;100704.41;4988114;28;102865;-55
2022/09/26 09:56:57;;;;;;;56.33;52.90;;;;;;;18.59;73.10;100707.50;4993448;28;107916;-55
2022/09/26 09:59:39;;;;;;;53.33;50.08;;;;;;;18.59;73.09;100704.75;4996855;28;102345;-54
2022/09/26 10:02:20;;;;;;;58.58;55.30;;;;;;;18.60;72.97;100698.09;5013933;28;102035;-55
2022/09/26 10:04:57;;;;;;;53.22;50.20;;;;;;;18.61;73.15;100692.28;5012228;28;102011;-55
2022/09/26 10:07:23;;;;;;;52.85;49.67;;;;;;;18.61;73.15;100696.94;5003419;28;104223;-55
2022/09/26 10:09:50;;;;;;;58.65;55.25;;;;;;;18.60;73.30;100690.63;4993643;28;102358;-55
2022/09/26 10:12:22;;;;;;;57.85;54.50;;;;;;;18.60;73.32;100684.31;4949850;28;1249270;-55
2022/09/26 10:14:54;;;;;;;52.17;49.13;;;;;;;18.61;73.29;100681.25;4995035;28;102068;-55
2022/09/26 10:17:22;;;;;;;60.63;57.33;;;;;;;18.60;73.06;100679.59;4996323;28;103900;-55
2022/09/26 10:19:49;;;;;;;54.33;51.10;;;;;;;18.61;73.12;100678.50;5010012;28;101880;-55
2022/09/26 10:22:28;;;;;;;59.90;56.33;;;;;;;18.60;73.33;100668.59;5006399;28;102288;-55
2022/09/26 10:25:01;;;;;;;56.43;53.03;;;;;;;18.60;73.33;100662.25;4996591;28;102325;-55
2022/09/26 10:27:34;;;;;;;54.63;51.35;;;;;;;18.60;73.42;100662.25;5013232;28;103891;-54
2022/09/26 10:30:03;;;;;;;51.88;48.72;;;;;;;18.59;73.30;100655.13;5001147;28;102315;-54
2022/09/26 10:32:44;;;;;;;59.53;56.17;;;;;;;18.59;73.40;100655.13;4998673;28;102662;-55
2022/09/26 10:35:18;;;;;;;57.70;54.08;;;;;;;18.59;73.45;100649.63;4999602;28;102278;-54
2022/09/26 10:37:49;;;;;;;55.63;52.25;;;;;;;18.57;73.19;100636.19;4997100;28;107951;-54
2022/09/26 10:43:34;;;;;;;47.55;44.42;;;;;;;18.57;73.00;100635.34;5018052;28;102561;-54
2022/09/26 10:46:05;;;;;;;50.38;47.17;;;;;;;18.57;73.47;100625.16;4996774;28;103341;-54
2022/09/26 10:48:46;;;;;;;53.38;50.17;;;;;;;18.57;73.53;100619.66;5020882;27;103931;-54
2022/09/26 10:51:22;;;;;;;54.28;51.17;;;;;;;18.58;73.67;100614.94;5008097;28;102194;-54
2022/09/26 10:53:53;;;;;;;53.00;49.95;;;;;;;18.58;73.28;100614.94;5001224;28;102466;-54
2022/09/26 10:56:25;;;;;;;54.63;51.55;;;;;;;18.58;73.22;100620.47;5000087;28;102378;-54
2022/09/26 10:58:57;;;;;;;53.65;50.60;;;;;;;18.59;73.13;100616.56;4994392;28;104115;-53
2022/09/26 11:01:28;;;;;;;54.05;50.72;;;;;;;18.59;73.40;100619.31;4996741;28;102337;-54
2022/09/26 11:04:09;;;;;;;52.65;49.60;;;;;;;18.58;73.41;100621.25;4997371;28;102217;-53
2022/09/26 11:06:42;;;;;;;52.55;49.53;;;;;;;18.57;72.93;100610.53;4997991;28;102467;-54
2022/09/26 11:09:10;;;;;;;52.00;48.80;;;;;;;18.57;73.18;100613.31;4986232;28;109776;-53
2022/09/26 11:11:38;;;;;;;47.85;45.10;;;;;;;18.56;73.22;100617.22;5008570;28;102527;-53
2022/09/26 11:14:07;;;;;;;53.97;50.72;;;;;;;18.56;72.81;100608.94;4990054;28;102256;-53
2022/09/26 11:16:50;;;;;;;51.08;48.03;;;;;;;18.56;73.29;100611.69;4996804;28;102776;-53
2022/09/26 11:19:27;;;;;;;49.17;46.33;;;;;;;18.55;73.02;100607.31;4993616;28;103947;-53
2022/09/26 11:22:00;;;;;;;53.47;50.45;;;;;;;18.56;73.44;100608.94;4995385;28;103211;-53
2022/09/26 11:24:36;;;;;;;55.75;52.47;;;;;;;18.56;73.35;100623.53;4988851;28;104677;-53
2022/09/26 11:27:18;;;;;;;52.20;48.92;;;;;;;18.56;73.46;100619.97;4996797;28;102900;-53
2022/09/26 11:29:54;;;;;;;52.55;49.42;;;;;;;18.55;73.38;100610.88;4993318;28;103974;-54
2022/09/26 11:32:27;;;;;;;50.95;48.05;;;;;;;18.55;73.20;100616.41;4990710;28;102343;-53
2022/09/26 11:35:01;;;;;;;51.83;48.70;;;;;;;18.55;73.38;100608.13;4985602;28;102210;-53
2022/09/26 11:37:44;;;;;;;53.28;50.08;;;;;;;18.56;73.05;100600.66;4994536;28;102496;-53